createdAt,value
2023-05-09T00:01:16.026Z,60.13
2023-05-09T00:03:43.094Z,59.69
2023-05-09T00:06:12.797Z,59.07
2023-05-09T00:08:39.482Z,59.10
2023-05-09T00:11:06.108Z,59.25
2023-05-09T00:13:34.086Z,59.03
2023-05-09T00:16:01.115Z,58.86
2023-05-09T00:18:28.466Z,59.00
2023-05-09T00:20:54.965Z,58.73
2023-05-09T00:23:21.534Z,59.28
2023-05-09T00:25:48.146Z,58.90
2023-05-09T00:28:14.984Z,58.92
2023-05-09T00:30:41.619Z,59.09
2023-05-09T00:33:08.176Z,59.13
2023-05-09T00:35:35.172Z,59.72
2023-05-09T00:38:01.700Z,59.26
2023-05-09T00:40:29.255Z,60.09
2023-05-09T00:42:58.269Z,59.82
2023-05-09T00:45:25.271Z,61.12
2023-05-09T00:47:51.966Z,62.55
2023-05-09T00:50:19.290Z,62.81
2023-05-09T00:52:45.846Z,61.64
2023-05-09T00:55:13.625Z,61.24
2023-05-09T00:57:40.234Z,63.50
2023-05-09T01:00:13.022Z,62.41
2023-05-09T01:02:52.867Z,63.08
2023-05-09T01:05:20.390Z,61.71
2023-05-09T01:08:08.930Z,61.52
2023-05-09T01:10:40.963Z,61.12
2023-05-09T01:13:15.713Z,61.49
2023-05-09T01:15:50.134Z,61.29
2023-05-09T01:19:02.861Z,61.10
2023-05-09T01:21:32.299Z,61.33
2023-05-09T01:24:20.650Z,60.95
2023-05-09T01:27:22.584Z,61.24
2023-05-09T01:29:55.575Z,60.75
2023-05-09T01:32:27.596Z,60.74
2023-05-09T01:34:57.189Z,60.78
2023-05-09T01:37:30.399Z,60.39
2023-05-09T01:40:00.872Z,60.28
2023-05-09T01:42:38.637Z,59.90
2023-05-09T01:45:06.143Z,59.85
2023-05-09T01:47:32.920Z,60.57
2023-05-09T01:50:01.898Z,60.60
2023-05-09T01:52:29.517Z,60.49
2023-05-09T01:54:56.458Z,60.24
2023-05-09T01:57:23.410Z,60.30
2023-05-09T01:59:50.889Z,60.25
2023-05-09T02:02:17.472Z,60.93
2023-05-09T02:04:44.839Z,60.45
2023-05-09T02:07:12.429Z,60.14
2023-05-09T02:09:38.945Z,60.26
2023-05-09T02:12:06.846Z,60.93
2023-05-09T02:14:33.366Z,60.08
2023-05-09T02:17:06.372Z,60.72
2023-05-09T02:19:35.300Z,60.86
2023-05-09T02:22:04.667Z,60.99
2023-05-09T02:24:33.232Z,60.67
2023-05-09T02:27:02.608Z,60.90
2023-05-09T02:29:39.770Z,61.00
2023-05-09T02:32:11.769Z,60.71
2023-05-09T02:34:38.668Z,60.53
2023-05-09T02:37:06.508Z,61.50
2023-05-09T02:39:33.051Z,61.40
2023-05-09T02:42:10.789Z,61.26
2023-05-09T02:44:38.648Z,61.65
2023-05-09T02:47:06.645Z,61.34
2023-05-09T02:49:33.710Z,60.98
2023-05-09T02:52:01.535Z,61.55
2023-05-09T02:54:28.401Z,61.11
2023-05-09T02:56:54.937Z,61.50
2023-05-09T02:59:21.383Z,60.69
2023-05-09T03:01:47.906Z,60.40
2023-05-09T03:04:14.384Z,60.45
2023-05-09T03:06:41.004Z,60.36
2023-05-09T03:09:07.586Z,59.96
2023-05-09T03:11:36.585Z,59.83
2023-05-09T03:14:04.010Z,59.62
2023-05-09T03:16:31.003Z,60.22
2023-05-09T03:18:57.646Z,59.95
2023-05-09T03:21:24.251Z,60.38
2023-05-09T03:23:51.126Z,60.35
2023-05-09T03:26:17.717Z,60.28
2023-05-09T03:28:46.378Z,61.08
2023-05-09T03:31:12.922Z,60.92
2023-05-09T03:33:39.749Z,61.87
2023-05-09T03:36:06.431Z,63.68
2023-05-09T03:38:32.941Z,62.30
2023-05-09T03:40:59.574Z,63.99
2023-05-09T03:43:26.459Z,63.40
2023-05-09T03:45:52.928Z,63.86
2023-05-09T03:48:20.194Z,63.38
2023-05-09T03:50:46.709Z,62.84
2023-05-09T03:53:13.501Z,63.94
2023-05-09T03:55:40.041Z,64.33
2023-05-09T03:58:06.570Z,62.69
2023-05-09T04:00:33.110Z,63.23
2023-05-09T04:02:59.683Z,62.36
2023-05-09T04:05:27.090Z,62.28
2023-05-09T04:07:53.868Z,61.44
2023-05-09T04:10:20.490Z,61.67
2023-05-09T04:12:47.251Z,62.09
2023-05-09T04:15:14.017Z,61.71
2023-05-09T04:17:40.774Z,60.71
2023-05-09T04:20:08.286Z,60.20
2023-05-09T04:22:34.762Z,60.28
2023-05-09T04:25:02.012Z,59.71
2023-05-09T04:27:28.846Z,59.97
2023-05-09T04:29:55.655Z,59.57
2023-05-09T04:32:23.228Z,58.60
2023-05-09T04:34:49.974Z,58.52
2023-05-09T04:37:17.081Z,59.08
2023-05-09T04:39:44.032Z,58.66
2023-05-09T04:42:10.760Z,58.28
2023-05-09T04:44:37.221Z,57.79
2023-05-09T04:47:03.740Z,57.54
2023-05-09T04:49:30.361Z,57.23
2023-05-09T04:51:56.848Z,56.72
2023-05-09T04:54:23.370Z,56.41
2023-05-09T04:56:50.772Z,56.23
2023-05-09T04:59:17.317Z,55.96
2023-05-09T05:01:44.144Z,55.83
2023-05-09T05:04:10.685Z,55.30
2023-05-09T05:06:37.171Z,55.41
2023-05-09T05:09:03.890Z,54.98
2023-05-09T05:11:30.915Z,54.73
2023-05-09T05:13:57.394Z,54.29
2023-05-09T05:16:23.875Z,53.90
2023-05-09T05:18:50.751Z,54.18
2023-05-09T05:21:17.198Z,53.59
2023-05-09T05:23:43.828Z,53.52
2023-05-09T05:26:10.592Z,53.12
2023-05-09T05:28:37.060Z,53.12
2023-05-09T05:31:03.536Z,52.75
2023-05-09T05:33:30.026Z,52.51
2023-05-09T05:35:56.529Z,52.63
2023-05-09T05:38:23.097Z,52.14
2023-05-09T05:40:49.590Z,51.98
2023-05-09T05:43:16.052Z,52.54
2023-05-09T05:45:42.578Z,52.23
2023-05-09T05:48:09.129Z,52.39
2023-05-09T05:50:36.640Z,52.01
2023-05-09T05:53:03.305Z,51.93
2023-05-09T05:55:29.768Z,51.64
2023-05-09T05:57:56.518Z,51.90
2023-05-09T06:00:22.981Z,54.23
2023-05-09T06:02:49.744Z,52.82
2023-05-09T06:05:16.986Z,53.46
2023-05-09T06:07:44.281Z,52.84
2023-05-09T06:10:11.082Z,53.89
2023-05-09T06:12:37.682Z,52.67
2023-05-09T06:15:07.409Z,52.68
2023-05-09T06:17:34.701Z,51.93
2023-05-09T06:20:01.334Z,51.72
2023-05-09T06:22:27.843Z,51.43
2023-05-09T06:24:54.338Z,51.50
2023-05-09T06:27:20.905Z,52.30
2023-05-09T06:29:47.497Z,51.41
2023-05-09T06:32:13.994Z,50.80
2023-05-09T06:34:41.862Z,51.95
2023-05-09T06:37:08.382Z,51.92
2023-05-09T06:39:34.844Z,50.44
2023-05-09T06:42:01.338Z,50.40
2023-05-09T06:44:28.166Z,51.07
2023-05-09T06:46:55.438Z,49.84
2023-05-09T06:49:22.517Z,50.43
2023-05-09T06:51:49.038Z,49.83
2023-05-09T06:54:17.152Z,49.64
2023-05-09T06:56:43.652Z,49.89
2023-05-09T06:59:13.256Z,50.26
2023-05-09T07:01:40.916Z,49.89
2023-05-09T07:04:07.777Z,49.67
2023-05-09T07:06:34.323Z,50.04
2023-05-09T07:09:00.858Z,50.61
2023-05-09T07:11:27.383Z,51.10
2023-05-09T07:13:53.868Z,50.98
2023-05-09T07:16:22.876Z,51.59
2023-05-09T07:18:49.669Z,50.21
2023-05-09T07:21:16.243Z,50.47
2023-05-09T07:23:42.782Z,49.12
2023-05-09T07:26:09.282Z,48.93
2023-05-09T07:28:35.732Z,50.39
2023-05-09T07:31:02.211Z,50.54
2023-05-09T07:33:28.732Z,51.54
2023-05-09T07:35:55.581Z,51.28
2023-05-09T07:38:22.245Z,51.60
2023-05-09T07:40:48.742Z,52.52
2023-05-09T07:43:15.591Z,51.11
2023-05-09T07:45:42.114Z,50.21
2023-05-09T07:48:09.394Z,49.45
2023-05-09T07:50:35.937Z,47.89
2023-05-09T07:53:02.428Z,47.08
2023-05-09T07:55:29.189Z,45.59
2023-05-09T07:57:55.625Z,46.43
2023-05-09T08:00:23.930Z,46.17
2023-05-09T08:02:51.545Z,47.05
2023-05-09T08:05:18.351Z,51.39
2023-05-09T08:07:45.338Z,51.21
2023-05-09T08:10:12.359Z,52.50
2023-05-09T08:12:39.268Z,51.79
2023-05-09T08:15:06.373Z,54.65
2023-05-09T08:17:33.088Z,55.15
2023-05-09T08:19:59.544Z,56.98
2023-05-09T08:22:26.406Z,56.45
2023-05-09T08:24:52.868Z,57.21
2023-05-09T08:27:19.713Z,55.31
2023-05-09T08:29:46.209Z,55.53
2023-05-09T08:32:13.009Z,54.92
2023-05-09T08:34:39.573Z,55.89
2023-05-09T08:37:06.041Z,55.64
2023-05-09T08:39:34.939Z,56.36
2023-05-09T08:42:02.351Z,56.29
2023-05-09T08:44:30.463Z,54.07
2023-05-09T08:47:00.137Z,53.53
2023-05-09T08:49:26.810Z,53.91
2023-05-09T08:51:53.669Z,53.49
2023-05-09T08:54:22.914Z,53.71
2023-05-09T08:56:50.701Z,53.04
2023-05-09T08:59:18.562Z,53.58
2023-05-09T09:01:45.565Z,50.96
2023-05-09T09:04:12.258Z,52.54
2023-05-09T09:06:39.612Z,52.10
2023-05-09T09:09:08.538Z,51.63
2023-05-09T09:11:36.340Z,51.93
2023-05-09T09:14:12.804Z,52.22
2023-05-09T09:16:41.611Z,53.34
2023-05-09T09:19:12.494Z,52.59
2023-05-09T09:21:42.465Z,53.18
2023-05-09T09:24:14.221Z,55.31
2023-05-09T09:26:46.779Z,54.09
2023-05-09T09:32:02.069Z,54.73
2023-05-09T09:34:28.654Z,54.05
2023-05-09T09:36:55.271Z,54.72
2023-05-09T09:39:22.102Z,54.30
2023-05-09T09:41:49.031Z,53.38
2023-05-09T09:44:22.785Z,52.10
2023-05-09T09:46:50.674Z,50.18
2023-05-09T09:49:22.201Z,50.58
2023-05-09T09:51:53.992Z,50.56
2023-05-09T09:54:20.810Z,52.35
2023-05-09T09:56:49.670Z,50.37
2023-05-09T09:59:18.849Z,50.28
2023-05-09T10:02:05.121Z,48.43
2023-05-09T10:04:35.487Z,48.66
2023-05-09T10:07:04.996Z,48.76
2023-05-09T10:09:32.958Z,48.10
2023-05-09T10:12:09.536Z,48.72
2023-05-09T10:14:36.848Z,47.35
2023-05-09T10:17:05.077Z,48.99
2023-05-09T10:19:32.440Z,47.14
2023-05-09T10:22:04.170Z,46.04
2023-05-09T10:24:34.754Z,48.09
2023-05-09T10:27:06.973Z,49.10
2023-05-09T10:29:36.735Z,46.08
2023-05-09T10:32:18.202Z,41.37
2023-05-09T10:34:48.117Z,39.19
2023-05-09T10:37:16.110Z,38.78
2023-05-09T10:39:42.997Z,36.81
2023-05-09T10:42:09.807Z,34.78
2023-05-09T10:44:37.398Z,36.35
2023-05-09T10:47:04.244Z,38.03
2023-05-09T10:49:31.012Z,37.79
2023-05-09T10:51:57.481Z,41.35
2023-05-09T10:54:33.285Z,42.98
2023-05-09T10:57:00.821Z,43.91
2023-05-09T10:59:57.749Z,43.39
2023-05-09T11:02:34.960Z,42.43
2023-05-09T11:05:15.986Z,43.23
2023-05-09T11:07:43.378Z,42.10
2023-05-09T11:10:20.073Z,42.65
2023-05-09T11:12:58.149Z,45.44
2023-05-09T11:15:26.551Z,45.27
2023-05-09T11:18:07.442Z,45.82
2023-05-09T11:20:37.918Z,47.27
2023-05-09T11:23:05.984Z,48.14
2023-05-09T11:25:33.002Z,46.29
2023-05-09T11:28:01.788Z,43.69
2023-05-09T11:30:42.523Z,44.90
2023-05-09T11:33:31.197Z,43.19
2023-05-09T11:36:19.904Z,43.55
2023-05-09T11:38:47.551Z,43.26
2023-05-09T11:41:15.440Z,41.30
2023-05-09T11:43:42.911Z,39.44
2023-05-09T11:46:09.473Z,41.18
2023-05-09T11:48:39.817Z,39.22
2023-05-09T11:51:07.469Z,39.48
2023-05-09T11:53:34.278Z,37.98
2023-05-09T11:56:04.794Z,37.35
2023-05-09T11:58:31.648Z,36.07
2023-05-09T12:00:58.465Z,33.59
2023-05-09T12:03:25.224Z,33.68
2023-05-09T12:05:51.850Z,34.32
2023-05-09T12:08:18.556Z,35.00
2023-05-09T12:10:45.020Z,34.46
2023-05-09T12:13:12.056Z,36.66
2023-05-09T12:15:38.741Z,37.34
2023-05-09T12:18:07.827Z,36.92
2023-05-09T12:21:00.885Z,38.38
2023-05-09T12:23:27.350Z,39.20
2023-05-09T12:25:55.610Z,40.38
2023-05-09T12:28:25.855Z,41.17
2023-05-09T12:30:53.338Z,39.72
2023-05-09T12:33:21.181Z,39.67
2023-05-09T12:35:48.565Z,40.47
2023-05-09T12:38:22.477Z,42.04
2023-05-09T12:40:50.056Z,39.78
2023-05-09T12:43:17.444Z,37.99
2023-05-09T12:45:44.118Z,40.76
2023-05-09T12:48:11.774Z,38.79
2023-05-09T12:50:38.436Z,39.42
2023-05-09T12:53:05.213Z,43.18
2023-05-09T12:55:39.808Z,42.38
2023-05-09T12:58:06.909Z,43.43
2023-05-09T13:00:46.014Z,44.00
2023-05-09T13:03:25.074Z,43.12
2023-05-09T13:05:58.831Z,42.79
2023-05-09T13:08:26.692Z,44.40
2023-05-09T13:11:00.776Z,45.43
2023-05-09T13:13:34.714Z,44.84
2023-05-09T13:16:03.730Z,44.56
2023-05-09T13:18:30.396Z,44.74
2023-05-09T13:20:57.035Z,43.20
2023-05-09T13:23:23.543Z,43.04
2023-05-09T13:25:50.023Z,41.79
2023-05-09T13:28:16.556Z,43.00
2023-05-09T13:30:43.089Z,42.42
2023-05-09T13:33:24.540Z,41.93
2023-05-09T13:35:51.703Z,43.35
2023-05-09T13:38:18.153Z,42.81
2023-05-09T13:40:44.628Z,45.09
2023-05-09T13:43:11.230Z,45.45
2023-05-09T13:45:37.656Z,47.02
2023-05-09T13:48:04.598Z,45.12
2023-05-09T13:50:31.141Z,45.17
2023-05-09T13:52:58.142Z,46.36
2023-05-09T13:55:26.364Z,47.86
2023-05-09T13:57:52.851Z,47.33
2023-05-09T14:00:21.212Z,50.74
2023-05-09T14:02:48.371Z,57.06
2023-05-09T14:05:15.015Z,61.23
2023-05-09T14:07:42.727Z,60.88
2023-05-09T14:10:11.732Z,63.30
2023-05-09T14:12:39.953Z,63.70
2023-05-09T14:15:07.781Z,66.89
2023-05-09T14:17:34.338Z,70.97
2023-05-09T14:20:00.893Z,70.14
2023-05-09T14:22:28.190Z,70.27
2023-05-09T14:24:56.522Z,69.65
2023-05-09T14:27:23.174Z,69.99
2023-05-09T14:29:50.144Z,71.07
2023-05-09T14:32:17.326Z,74.03
2023-05-09T14:34:44.448Z,72.02
2023-05-09T14:37:14.206Z,72.60
2023-05-09T14:39:42.502Z,71.49
2023-05-09T14:42:11.383Z,72.23
2023-05-09T14:44:38.671Z,73.42
2023-05-09T14:47:05.771Z,76.16
2023-05-09T14:49:32.705Z,76.31
2023-05-09T14:51:59.415Z,77.77
2023-05-09T14:54:25.958Z,79.33
2023-05-09T14:56:52.663Z,79.76
2023-05-09T14:59:19.152Z,79.85
2023-05-09T15:01:46.220Z,79.10
2023-05-09T15:04:12.763Z,78.58
2023-05-09T15:06:39.683Z,79.49
2023-05-09T15:09:06.236Z,79.53
2023-05-09T15:11:43.744Z,81.19
2023-05-09T15:14:14.688Z,80.79
2023-05-09T15:16:41.391Z,81.13
2023-05-09T15:19:08.313Z,78.12
2023-05-09T15:21:35.353Z,77.94
2023-05-09T15:24:02.465Z,76.64
2023-05-09T15:26:29.996Z,76.86
2023-05-09T15:28:56.554Z,76.99
2023-05-09T15:31:24.905Z,75.48
2023-05-09T15:33:51.687Z,74.41
2023-05-09T15:36:18.404Z,73.63
2023-05-09T15:38:48.324Z,71.71
2023-05-09T15:41:15.409Z,70.78
2023-05-09T15:43:42.097Z,70.50
2023-05-09T15:46:08.865Z,69.53
2023-05-09T15:48:35.383Z,69.47
2023-05-09T15:51:03.919Z,68.59
2023-05-09T15:53:30.454Z,68.72
2023-05-09T15:55:57.038Z,68.14
2023-05-09T15:58:23.604Z,68.15
2023-05-09T16:00:50.193Z,66.60
2023-05-09T16:03:16.846Z,66.57
2023-05-09T16:05:43.807Z,67.05
2023-05-09T16:08:10.616Z,67.08
2023-05-09T16:10:37.048Z,66.83
2023-05-09T16:13:03.951Z,66.12
2023-05-09T16:15:30.509Z,66.60
2023-05-09T16:17:57.020Z,65.95
2023-05-09T16:20:23.577Z,65.89
2023-05-09T16:22:50.182Z,65.95
2023-05-09T16:25:16.913Z,65.77
2023-05-09T16:27:43.493Z,65.75
2023-05-09T16:30:10.481Z,66.76
2023-05-09T16:32:37.101Z,66.52
2023-05-09T16:35:04.174Z,65.91
2023-05-09T16:37:31.060Z,67.66
2023-05-09T16:39:59.405Z,69.33
2023-05-09T16:42:26.133Z,70.07
2023-05-09T16:44:52.642Z,69.50
2023-05-09T16:47:19.162Z,69.48
2023-05-09T16:49:46.021Z,70.18
2023-05-09T16:52:12.753Z,69.54
2023-05-09T16:54:39.567Z,69.75
2023-05-09T16:57:06.112Z,70.88
2023-05-09T16:59:32.851Z,69.75
2023-05-09T17:01:59.952Z,69.80
2023-05-09T17:04:27.414Z,70.43
2023-05-09T17:06:54.019Z,71.80
2023-05-09T17:09:20.634Z,70.61
2023-05-09T17:11:48.213Z,72.28
2023-05-09T17:14:14.776Z,76.46
2023-05-09T17:16:41.288Z,74.36
2023-05-09T17:19:07.790Z,75.94
2023-05-09T17:21:34.860Z,78.11
2023-05-09T17:24:02.143Z,77.82
2023-05-09T17:26:29.647Z,76.70
2023-05-09T17:28:56.268Z,75.20
2023-05-09T17:31:22.875Z,73.27
2023-05-09T17:33:49.519Z,73.27
2023-05-09T17:36:16.258Z,71.57
2023-05-09T17:38:43.157Z,73.27
2023-05-09T17:41:09.857Z,72.37
2023-05-09T17:43:36.369Z,71.47
2023-05-09T17:46:03.757Z,73.07
2023-05-09T17:48:30.313Z,72.45
2023-05-09T17:50:56.894Z,74.00
2023-05-09T17:53:23.603Z,75.13
2023-05-09T17:55:50.518Z,75.33
2023-05-09T17:58:16.998Z,73.51
2023-05-09T18:00:44.623Z,73.13
2023-05-09T18:03:11.414Z,72.94
2023-05-09T18:05:38.216Z,72.16
2023-05-09T18:08:05.610Z,71.62
2023-05-09T18:10:32.372Z,71.60
2023-05-09T18:12:59.050Z,71.12
2023-05-09T18:15:26.321Z,71.02
2023-05-09T18:17:54.694Z,70.80
2023-05-09T18:20:21.487Z,70.06
2023-05-09T18:22:48.063Z,69.62
2023-05-09T18:25:14.582Z,69.52
2023-05-09T18:27:41.090Z,69.55
2023-05-09T18:30:08.166Z,69.45
2023-05-09T18:32:34.641Z,69.54
2023-05-09T18:35:01.149Z,69.65
2023-05-09T18:37:27.813Z,69.45
2023-05-09T18:39:54.354Z,69.43
2023-05-09T18:42:20.849Z,69.20
2023-05-09T18:44:47.332Z,68.98
2023-05-09T18:47:13.999Z,69.28
2023-05-09T18:49:41.205Z,69.83
2023-05-09T18:52:09.171Z,70.43
2023-05-09T18:54:36.536Z,69.85
2023-05-09T18:57:03.314Z,70.78
2023-05-09T18:59:29.816Z,70.61
2023-05-09T19:01:56.249Z,71.63
2023-05-09T19:04:22.926Z,73.94
2023-05-09T19:06:49.531Z,71.87
2023-05-09T19:09:16.615Z,72.71
2023-05-09T19:11:43.325Z,72.66
2023-05-09T19:14:09.993Z,75.25
2023-05-09T19:16:36.668Z,76.11
2023-05-09T19:19:03.340Z,75.33
2023-05-09T19:21:30.202Z,75.67
2023-05-09T19:23:56.693Z,74.08
2023-05-09T19:26:23.351Z,73.42
2023-05-09T19:28:49.914Z,73.42
2023-05-09T19:31:18.938Z,74.41
2023-05-09T19:33:47.476Z,75.10
2023-05-09T19:36:14.262Z,75.18
2023-05-09T19:38:41.222Z,75.08
2023-05-09T19:41:07.896Z,74.04
2023-05-09T19:43:34.971Z,73.97
2023-05-09T19:46:01.572Z,73.21
2023-05-09T19:48:28.115Z,72.48
2023-05-09T19:50:58.470Z,72.60
2023-05-09T19:53:25.284Z,72.18
2023-05-09T19:55:52.200Z,74.57
2023-05-09T19:58:18.734Z,73.65
2023-05-09T20:00:45.871Z,72.88
2023-05-09T20:03:12.616Z,73.56
2023-05-09T20:05:39.516Z,72.06
2023-05-09T20:08:06.191Z,72.79
2023-05-09T20:10:32.972Z,73.42
2023-05-09T20:13:00.890Z,73.27
2023-05-09T20:15:27.836Z,73.20
2023-05-09T20:17:54.435Z,72.78
2023-05-09T20:20:21.513Z,72.26
2023-05-09T20:22:48.037Z,71.59
2023-05-09T20:25:14.753Z,70.97
2023-05-09T20:27:41.449Z,71.11
2023-05-09T20:30:08.396Z,70.89
2023-05-09T20:32:35.130Z,70.21
2023-05-09T20:35:02.007Z,70.66
2023-05-09T20:37:28.493Z,70.34
2023-05-09T20:39:54.981Z,70.29
2023-05-09T20:42:23.227Z,70.89
2023-05-09T20:44:51.453Z,70.80
2023-05-09T20:47:17.923Z,69.97
2023-05-09T20:49:44.397Z,69.34
2023-05-09T20:52:11.022Z,68.92
2023-05-09T20:54:37.661Z,70.43
2023-05-09T20:57:04.177Z,72.59
2023-05-09T20:59:31.007Z,73.94
2023-05-09T21:01:57.645Z,72.17
2023-05-09T21:04:24.276Z,72.20
2023-05-09T21:06:50.823Z,72.32
2023-05-09T21:09:17.334Z,72.33
2023-05-09T21:11:43.994Z,72.31
2023-05-09T21:14:10.916Z,71.91
2023-05-09T21:16:37.717Z,72.67
2023-05-09T21:19:06.043Z,71.79
2023-05-09T21:21:35.531Z,72.63
2023-05-09T21:24:04.233Z,72.43
2023-05-09T21:26:30.856Z,72.70
2023-05-09T21:28:57.550Z,72.33
2023-05-09T21:31:24.098Z,71.48
2023-05-09T21:33:51.976Z,71.24
2023-05-09T21:36:18.491Z,71.31
2023-05-09T21:38:45.443Z,71.92
2023-05-09T21:41:11.933Z,73.07
2023-05-09T21:43:38.702Z,71.92
2023-05-09T21:46:05.984Z,71.48
2023-05-09T21:48:32.815Z,71.88
2023-05-09T21:51:03.380Z,71.00
2023-05-09T21:53:29.946Z,71.49
2023-05-09T21:55:56.479Z,70.35
2023-05-09T21:58:22.950Z,70.24
2023-05-09T22:00:49.576Z,70.33
2023-05-09T22:03:16.213Z,71.37
2023-05-09T22:05:42.735Z,72.31
2023-05-09T22:08:09.266Z,73.26
2023-05-09T22:10:37.408Z,72.45
2023-05-09T22:13:03.925Z,72.18
2023-05-09T22:15:30.396Z,71.80
2023-05-09T22:17:56.871Z,71.76
2023-05-09T22:20:23.722Z,72.07
2023-05-09T22:22:50.377Z,71.93
2023-05-09T22:25:17.612Z,71.48
2023-05-09T22:27:44.117Z,72.57
2023-05-09T22:30:12.346Z,72.83
2023-05-09T22:32:39.608Z,74.11
2023-05-09T22:35:06.880Z,75.52
2023-05-09T22:37:33.425Z,76.94
2023-05-09T22:40:01.508Z,78.28
2023-05-09T22:42:29.373Z,77.32
2023-05-09T22:44:56.066Z,77.97
2023-05-09T22:47:22.932Z,76.48
2023-05-09T22:49:49.962Z,76.07
2023-05-09T22:52:17.140Z,76.86
2023-05-09T22:54:43.726Z,78.01
2023-05-09T22:57:10.700Z,76.86
2023-05-09T22:59:37.191Z,77.96
2023-05-09T23:02:04.661Z,80.49
2023-05-09T23:04:31.156Z,81.00
2023-05-09T23:06:57.737Z,79.32
2023-05-09T23:09:24.363Z,80.37
2023-05-09T23:11:51.515Z,79.40
2023-05-09T23:14:18.331Z,77.95
2023-05-09T23:16:44.770Z,77.79
2023-05-09T23:19:11.562Z,77.80
2023-05-09T23:21:38.265Z,76.96
2023-05-09T23:24:04.896Z,77.67
2023-05-09T23:26:31.332Z,76.04
2023-05-09T23:28:57.891Z,75.94
2023-05-09T23:31:24.411Z,77.44
2023-05-09T23:33:50.908Z,78.03
2023-05-09T23:36:17.594Z,77.45
2023-05-09T23:38:44.158Z,78.45
2023-05-09T23:41:10.801Z,77.52
2023-05-09T23:43:37.695Z,76.75
2023-05-09T23:46:04.346Z,78.58
2023-05-09T23:48:30.933Z,78.47
2023-05-09T23:50:57.827Z,78.51
2023-05-09T23:53:24.577Z,77.29
2023-05-09T23:55:51.430Z,77.95
2023-05-09T23:58:17.990Z,78.94
